Monte Grande, Argentina
Current Conditions -  °F | °C
As of 1:00 AM on Wednesday 26 Nov 2014 (Local Time) from SAEZ Reporting Station
Clear Clear  
Wind Chill: 13°   Ceiling: Unl
Heat Index: 13°   Visibility: 6mi
Dew Point: 10°   Wind: 2mph
Humidity: 82%   Direction: 160°SSE
Pressure: 29.94"   Gusts: NA
Location:  34.83°S, 58.47°W
Report Text: SAEZ 260400Z 16002KT CAVOK 13/10 Q1014
Loading
Personal Weather Stations






























Interactive Weather Map New forecast layout! Learn more

10-Day Weather Forecast

Advertisements
Track Severe Weather on mobile